• Join FlightAware (Why Join?)
  • Login
  • US Flag 
10:08PM EST


 

Airport Tracker/Info


-or-


 

Live Flight TrackerFlight Track Log ✈ UAL3589 ✈ 02-May-2013 ✈ KEWR - KMDT

Flight Track Log - Related Links

Times and Time Zones

All times are in EDT time to prevent confusion due to time zone crossing. See the UAL3589 flight status page for this flight to view local times or setup timezone preferences in your user account.

Time Position Orientation Groundspeed Altitude Reporting Facility
EDT Latitude Longitude Course Direction KTS MPH feet Rate Location/Type
09:45PM 40.6333 -74.1833 270° West 170 196 2,100  Level New York TRACON
09:46PM 40.6333 -74.2500 270° West 174 200 3,800 1,500 Climbing New York TRACON
09:47PM 40.6333 -74.3000 270° West 189 217 5,100 1,260 Climbing New York TRACON
09:48PM 40.6333 -74.3667 270° West 205 236 6,300 1,260 Climbing New York TRACON
09:49PM 40.6333 -74.4500 270° West 217 250 7,500 780 Climbing New York TRACON
09:50PM 40.6333 -74.5500 270° West 250 288 8,000 420 Climbing New York TRACON
09:52PM 40.5811 -74.6612 255° West  Level FlightAware Approximate
09:59PM 40.5504 -75.3089 273° West  Level FlightAware Approximate
10:00PM 40.5546 -75.4023 273° West  Level FlightAware Approximate
10:01PM 40.5587 -75.4957 273° West  Level FlightAware Approximate
10:02PM 40.5627 -75.5891 273° West  Level FlightAware Approximate
10:03PM 40.5666 -75.6826 273° West  Level FlightAware Approximate
10:04PM 40.5425 -75.7705 250° West  Level FlightAware Approximate
10:05PM 40.5182 -75.8584 250° West  Level FlightAware Approximate
10:06PM 40.4937 -75.9462 250° West  Level FlightAware Approximate
10:07PM 40.4758 -76.0363 259° West  Level FlightAware Approximate
10:08PM 40.4599 -76.1272 252° West  Level FlightAware Approximate
10:09PM 40.4342 -76.2141 246° West  Level FlightAware Approximate
10:10PM 40.4057 -76.2997 246° West  Level FlightAware Approximate
10:11PM 40.3811 -76.3872 251° West  Level FlightAware Approximate
10:12PM 40.3575 -76.4752 251° West  Level FlightAware Approximate
10:13PM 40.3339 -76.5632 251° West  Level FlightAware Approximate
10:14PM 40.3102 -76.6511 251° West  Level FlightAware Approximate
10:15PM 40.2864 -76.7389 250° West  Level FlightAware Approximate
10:16PM 40.2833 -76.8314 270° West  Level FlightAware Approximate
10:17PM 40.2833 -76.9246 270° West  Level FlightAware Approximate
10:18PM 40.2952 -77.0163 281° West  Level FlightAware Approximate
10:19PM 40.2825 -77.0312 118° Southeast  Level FlightAware Approximate
10:20PM 40.2500 -76.9485 90° East  Level FlightAware Approximate
10:21PM 40.2313 -76.8627 123° Southeast  Level FlightAware Approximate
10:22PM 40.1961 -76.7820 118° Southeast  Level FlightAware Approximate
10:23PM 40.1932 -76.7626 118° Southeast  Level Estimated
10:24PM 40.1932 -76.7626 118° Southeast  Level Estimated
10:25PM 40.1932 -76.7626 118° Southeast  Level Estimated